sensor_id;sensor_type;location;lat;lon;timestamp;pressure;altitude;pressure_sealevel;temperature;humidity
46394;BME280;32099;53.588;10.176;2023-02-01T00:01:08;100719.97;;;4.98;86.58
46394;BME280;32099;53.588;10.176;2023-02-01T00:03:34;100700.88;;;4.99;87.24
46394;BME280;32099;53.588;10.176;2023-02-01T00:05:59;100712.25;;;5.03;86.38
46394;BME280;32099;53.588;10.176;2023-02-01T00:08:25;100722.22;;;5.02;86.59
46394;BME280;32099;53.588;10.176;2023-02-01T00:10:57;100731.72;;;5.06;87.02
46394;BME280;32099;53.588;10.176;2023-02-01T00:13:24;100751.34;;;5.08;87.39
46394;BME280;32099;53.588;10.176;2023-02-01T00:15:49;100708.66;;;5.12;87.01
46394;BME280;32099;53.588;10.176;2023-02-01T00:18:14;100691.44;;;5.13;86.24
46394;BME280;32099;53.588;10.176;2023-02-01T00:20:44;100714.06;;;5.12;86.39
46394;BME280;32099;53.588;10.176;2023-02-01T00:23:10;100692.75;;;5.09;86.40
46394;BME280;32099;53.588;10.176;2023-02-01T00:25:35;100699.16;;;5.08;86.59
46394;BME280;32099;53.588;10.176;2023-02-01T00:28:01;100692.88;;;5.07;86.81
46394;BME280;32099;53.588;10.176;2023-02-01T00:30:26;100691.75;;;5.10;86.94
46394;BME280;32099;53.588;10.176;2023-02-01T00:32:51;100694.59;;;5.08;86.67
46394;BME280;32099;53.588;10.176;2023-02-01T00:35:17;100695.44;;;5.09;86.37
46394;BME280;32099;53.588;10.176;2023-02-01T00:37:42;100678.69;;;5.05;87.00
46394;BME280;32099;53.588;10.176;2023-02-01T00:40:07;100698.59;;;5.04;86.86
46394;BME280;32099;53.588;10.176;2023-02-01T00:42:33;100698.28;;;5.07;86.54
46394;BME280;32099;53.588;10.176;2023-02-01T00:44:58;100706.72;;;5.04;86.16
46394;BME280;32099;53.588;10.176;2023-02-01T00:47:24;100698.44;;;5.06;85.91
46394;BME280;32099;53.588;10.176;2023-02-01T00:49:49;100698.88;;;5.11;85.36
46394;BME280;32099;53.588;10.176;2023-02-01T00:52:14;100698.53;;;5.14;85.81
46394;BME280;32099;53.588;10.176;2023-02-01T00:54:39;100697.41;;;5.17;85.41
46394;BME280;32099;53.588;10.176;2023-02-01T00:57:05;100697.41;;;5.17;85.50
46394;BME280;32099;53.588;10.176;2023-02-01T00:59:30;100684.44;;;5.20;86.12
46394;BME280;32099;53.588;10.176;2023-02-01T01:01:55;100685.16;;;5.22;85.55
46394;BME280;32099;53.588;10.176;2023-02-01T01:04:21;100692.81;;;5.27;85.79
46394;BME280;32099;53.588;10.176;2023-02-01T01:06:46;100688.50;;;5.34;86.07
46394;BME280;32099;53.588;10.176;2023-02-01T01:09:11;100696.31;;;5.37;86.10
46394;BME280;32099;53.588;10.176;2023-02-01T01:11:37;100698.03;;;5.38;85.94
46394;BME280;32099;53.588;10.176;2023-02-01T01:14:03;100681.34;;;5.43;86.13
46394;BME280;32099;53.588;10.176;2023-02-01T01:16:31;100687.91;;;5.40;85.13
46394;BME280;32099;53.588;10.176;2023-02-01T01:18:57;100680.34;;;5.44;85.79
46394;BME280;32099;53.588;10.176;2023-02-01T01:21:23;100672.78;;;5.48;85.84
46394;BME280;32099;53.588;10.176;2023-02-01T01:23:49;100671.06;;;5.47;85.27
46394;BME280;32099;53.588;10.176;2023-02-01T01:26:15;100673.78;;;5.47;85.58
46394;BME280;32099;53.588;10.176;2023-02-01T01:28:43;100677.19;;;5.49;85.37
46394;BME280;32099;53.588;10.176;2023-02-01T01:31:09;100673.16;;;5.53;85.28
46394;BME280;32099;53.588;10.176;2023-02-01T01:33:36;100673.03;;;5.54;84.89
46394;BME280;32099;53.588;10.176;2023-02-01T01:36:01;100661.19;;;5.55;84.73
46394;BME280;32099;53.588;10.176;2023-02-01T01:38:29;100653.22;;;5.54;85.12
46394;BME280;32099;53.588;10.176;2023-02-01T01:40:54;100649.50;;;5.55;84.77
46394;BME280;32099;53.588;10.176;2023-02-01T01:43:19;100649.84;;;5.52;84.31
46394;BME280;32099;53.588;10.176;2023-02-01T01:45:47;100644.97;;;5.55;84.00
46394;BME280;32099;53.588;10.176;2023-02-01T01:48:14;100643.81;;;5.58;84.83
46394;BME280;32099;53.588;10.176;2023-02-01T01:50:47;100636.69;;;5.57;83.87
46394;BME280;32099;53.588;10.176;2023-02-01T01:53:18;100640.81;;;5.61;84.54
46394;BME280;32099;53.588;10.176;2023-02-01T01:55:48;100627.97;;;5.63;84.11
46394;BME280;32099;53.588;10.176;2023-02-01T01:58:16;100631.53;;;5.64;83.95
46394;BME280;32099;53.588;10.176;2023-02-01T02:00:44;100634.06;;;5.65;83.92
46394;BME280;32099;53.588;10.176;2023-02-01T02:06:00;100633.59;;;5.70;83.49
46394;BME280;32099;53.588;10.176;2023-02-01T02:08:29;100623.34;;;5.74;83.88
46394;BME280;32099;53.588;10.176;2023-02-01T02:10:54;100616.06;;;5.74;83.81
46394;BME280;32099;53.588;10.176;2023-02-01T02:13:27;100616.59;;;5.78;83.64
46394;BME280;32099;53.588;10.176;2023-02-01T02:15:58;100611.03;;;5.79;83.56
46394;BME280;32099;53.588;10.176;2023-02-01T02:21:52;100615.47;;;5.80;83.40
46394;BME280;32099;53.588;10.176;2023-02-01T02:27:41;100591.09;;;5.80;83.88
46394;BME280;32099;53.588;10.176;2023-02-01T02:30:32;100584.34;;;5.84;83.55
46394;BME280;32099;53.588;10.176;2023-02-01T02:33:38;100592.34;;;5.86;83.39
46394;BME280;32099;53.588;10.176;2023-02-01T02:38:52;100584.88;;;5.88;83.61
46394;BME280;32099;53.588;10.176;2023-02-01T02:41:38;100582.19;;;5.88;83.38
46394;BME280;32099;53.588;10.176;2023-02-01T02:44:47;100579.47;;;5.88;82.78
46394;BME280;32099;53.588;10.176;2023-02-01T02:47:53;100591.31;;;5.87;83.68
46394;BME280;32099;53.588;10.176;2023-02-01T02:50:27;100585.88;;;5.87;84.49
46394;BME280;32099;53.588;10.176;2023-02-01T02:53:42;100583.88;;;5.89;84.61
46394;BME280;32099;53.588;10.176;2023-02-01T02:56:30;100579.63;;;5.86;84.98
46394;BME280;32099;53.588;10.176;2023-02-01T02:59:14;100574.88;;;5.80;86.52
46394;BME280;32099;53.588;10.176;2023-02-01T03:02:04;100567.75;;;5.79;87.00
46394;BME280;32099;53.588;10.176;2023-02-01T03:04:52;100565.34;;;5.76;86.77
46394;BME280;32099;53.588;10.176;2023-02-01T03:13:07;100537.75;;;5.72;87.45
46394;BME280;32099;53.588;10.176;2023-02-01T03:15:39;100547.50;;;5.65;87.40
46394;BME280;32099;53.588;10.176;2023-02-01T03:18:12;100552.22;;;5.63;87.55
46394;BME280;32099;53.588;10.176;2023-02-01T03:20:43;100546.13;;;5.61;87.59
46394;BME280;32099;53.588;10.176;2023-02-01T03:23:13;100536.44;;;5.59;88.02
46394;BME280;32099;53.588;10.176;2023-02-01T03:25:41;100534.75;;;5.58;88.44
46394;BME280;32099;53.588;10.176;2023-02-01T03:28:07;100536.22;;;5.52;88.63
46394;BME280;32099;53.588;10.176;2023-02-01T03:30:36;100532.50;;;5.53;88.95
46394;BME280;32099;53.588;10.176;2023-02-01T03:33:04;100528.50;;;5.57;88.54
46394;BME280;32099;53.588;10.176;2023-02-01T03:35:47;100532.59;;;5.61;88.51
46394;BME280;32099;53.588;10.176;2023-02-01T03:38:21;100533.91;;;5.57;88.40
46394;BME280;32099;53.588;10.176;2023-02-01T03:40:55;100548.59;;;5.54;88.26
46394;BME280;32099;53.588;10.176;2023-02-01T03:43:29;100539.94;;;5.51;88.32
46394;BME280;32099;53.588;10.176;2023-02-01T03:46:04;100529.25;;;5.49;88.30
46394;BME280;32099;53.588;10.176;2023-02-01T03:48:34;100537.38;;;5.49;88.26
46394;BME280;32099;53.588;10.176;2023-02-01T03:51:01;100533.13;;;5.47;88.04
46394;BME280;32099;53.588;10.176;2023-02-01T03:53:30;100527.72;;;5.47;87.72
46394;BME280;32099;53.588;10.176;2023-02-01T03:55:57;100524.84;;;5.48;87.73
46394;BME280;32099;53.588;10.176;2023-02-01T03:58:23;100532.38;;;5.54;87.62
46394;BME280;32099;53.588;10.176;2023-02-01T04:03:18;100519.78;;;5.45;87.97
46394;BME280;32099;53.588;10.176;2023-02-01T04:05:43;100514.38;;;5.45;87.40
46394;BME280;32099;53.588;10.176;2023-02-01T04:08:09;100499.84;;;5.46;88.39
46394;BME280;32099;53.588;10.176;2023-02-01T04:10:34;100504.56;;;5.44;87.68
46394;BME280;32099;53.588;10.176;2023-02-01T04:12:59;100496.44;;;5.44;88.20
46394;BME280;32099;53.588;10.176;2023-02-01T04:15:25;100508.09;;;5.45;88.16
46394;BME280;32099;53.588;10.176;2023-02-01T04:17:50;100490.50;;;5.40;88.47
46394;BME280;32099;53.588;10.176;2023-02-01T04:20:15;100491.97;;;5.35;88.20
46394;BME280;32099;53.588;10.176;2023-02-01T04:22:41;100502.91;;;5.33;89.20
46394;BME280;32099;53.588;10.176;2023-02-01T04:25:07;100496.97;;;5.30;89.71
46394;BME280;32099;53.588;10.176;2023-02-01T04:27:33;100485.47;;;5.28;89.24
46394;BME280;32099;53.588;10.176;2023-02-01T04:29:58;100492.88;;;5.25;89.94
46394;BME280;32099;53.588;10.176;2023-02-01T04:32:24;100477.34;;;5.28;89.45
46394;BME280;32099;53.588;10.176;2023-02-01T04:34:49;100465.69;;;5.27;89.22
46394;BME280;32099;53.588;10.176;2023-02-01T04:37:14;100469.53;;;5.24;89.74
46394;BME280;32099;53.588;10.176;2023-02-01T04:39:40;100459.19;;;5.20;89.65
46394;BME280;32099;53.588;10.176;2023-02-01T04:42:05;100460.91;;;5.21;89.47
46394;BME280;32099;53.588;10.176;2023-02-01T04:44:30;100458.19;;;5.21;89.81
46394;BME280;32099;53.588;10.176;2023-02-01T04:46:56;100462.75;;;5.20;89.40
46394;BME280;32099;53.588;10.176;2023-02-01T04:49:21;100459.19;;;5.20;89.29
46394;BME280;32099;53.588;10.176;2023-02-01T04:51:47;100447.53;;;5.19;88.90
46394;BME280;32099;53.588;10.176;2023-02-01T04:54:12;100460.19;;;5.19;89.26
46394;BME280;32099;53.588;10.176;2023-02-01T04:56:38;100467.06;;;5.13;89.49
46394;BME280;32099;53.588;10.176;2023-02-01T04:59:04;100452.66;;;5.04;89.87
46394;BME280;32099;53.588;10.176;2023-02-01T05:01:30;100477.09;;;5.03;92.14
46394;BME280;32099;53.588;10.176;2023-02-01T05:03:56;100460.91;;;5.03;92.35
46394;BME280;32099;53.588;10.176;2023-02-01T05:06:21;100465.31;;;5.04;92.47
46394;BME280;32099;53.588;10.176;2023-02-01T05:08:47;100459.59;;;5.07;93.04
46394;BME280;32099;53.588;10.176;2023-02-01T05:11:12;100467.88;;;5.05;92.25
46394;BME280;32099;53.588;10.176;2023-02-01T05:13:57;100467.94;;;4.96;91.50
46394;BME280;32099;53.588;10.176;2023-02-01T05:16:23;100475.16;;;4.95;92.23
46394;BME280;32099;53.588;10.176;2023-02-01T05:18:48;100468.69;;;4.88;92.58
46394;BME280;32099;53.588;10.176;2023-02-01T05:21:13;100464.03;;;4.80;91.99
46394;BME280;32099;53.588;10.176;2023-02-01T05:23:39;100471.31;;;4.79;92.92
46394;BME280;32099;53.588;10.176;2023-02-01T05:26:23;100462.50;;;4.77;93.11
46394;BME280;32099;53.588;10.176;2023-02-01T05:28:49;100461.66;;;4.77;91.88
46394;BME280;32099;53.588;10.176;2023-02-01T05:31:14;100445.50;;;4.67;91.84
46394;BME280;32099;53.588;10.176;2023-02-01T05:33:40;100466.31;;;4.57;91.49
46394;BME280;32099;53.588;10.176;2023-02-01T05:36:06;100452.88;;;4.47;91.18
46394;BME280;32099;53.588;10.176;2023-02-01T05:38:31;100440.13;;;4.39;91.80
46394;BME280;32099;53.588;10.176;2023-02-01T05:40:57;100446.84;;;4.35;90.32
46394;BME280;32099;53.588;10.176;2023-02-01T05:43:22;100451.81;;;4.30;89.86
46394;BME280;32099;53.588;10.176;2023-02-01T05:45:47;100456.66;;;4.26;89.35
46394;BME280;32099;53.588;10.176;2023-02-01T05:48:12;100468.31;;;4.27;89.10
46394;BME280;32099;53.588;10.176;2023-02-01T05:50:38;100480.97;;;4.26;89.34
46394;BME280;32099;53.588;10.176;2023-02-01T05:53:03;100480.81;;;4.28;89.59
46394;BME280;32099;53.588;10.176;2023-02-01T05:55:28;100484.81;;;4.24;89.13
46394;BME280;32099;53.588;10.176;2023-02-01T05:57:54;100486.00;;;4.11;89.37
46394;BME280;32099;53.588;10.176;2023-02-01T06:00:19;100478.97;;;3.91;89.48
46394;BME280;32099;53.588;10.176;2023-02-01T06:02:44;100478.69;;;3.84;89.87
46394;BME280;32099;53.588;10.176;2023-02-01T06:05:10;100476.00;;;3.84;90.50
46394;BME280;32099;53.588;10.176;2023-02-01T06:07:35;100483.94;;;3.85;90.59
46394;BME280;32099;53.588;10.176;2023-02-01T06:10:00;100481.38;;;3.84;91.15
46394;BME280;32099;53.588;10.176;2023-02-01T06:12:26;100481.50;;;3.82;90.30
46394;BME280;32099;53.588;10.176;2023-02-01T06:14:53;100488.78;;;3.82;90.40
46394;BME280;32099;53.588;10.176;2023-02-01T06:17:18;100482.22;;;3.84;90.59
46394;BME280;32099;53.588;10.176;2023-02-01T06:19:43;100483.94;;;3.85;90.81
46394;BME280;32099;53.588;10.176;2023-02-01T06:22:09;100482.22;;;3.84;90.23
46394;BME280;32099;53.588;10.176;2023-02-01T06:24:34;100472.72;;;3.80;90.42
46394;BME280;32099;53.588;10.176;2023-02-01T06:27:00;100471.59;;;3.83;90.71
46394;BME280;32099;53.588;10.176;2023-02-01T06:29:25;100463.78;;;3.90;90.76
46394;BME280;32099;53.588;10.176;2023-02-01T06:31:51;100465.88;;;3.96;89.90
46394;BME280;32099;53.588;10.176;2023-02-01T06:34:16;100464.59;;;4.00;89.82
46394;BME280;32099;53.588;10.176;2023-02-01T06:36:42;100457.31;;;4.00;89.88
46394;BME280;32099;53.588;10.176;2023-02-01T06:39:08;100464.59;;;4.00;89.67
46394;BME280;32099;53.588;10.176;2023-02-01T06:41:33;100464.59;;;4.00;90.23
46394;BME280;32099;53.588;10.176;2023-02-01T06:43:59;100455.06;;;4.06;89.88
46394;BME280;32099;53.588;10.176;2023-02-01T06:46:25;100462.53;;;4.12;89.62
46394;BME280;32099;53.588;10.176;2023-02-01T06:48:50;100470.50;;;4.13;89.79
46394;BME280;32099;53.588;10.176;2023-02-01T06:51:19;100463.97;;;4.16;90.04
46394;BME280;32099;53.588;10.176;2023-02-01T06:53:52;100457.56;;;4.17;89.95
46394;BME280;32099;53.588;10.176;2023-02-01T06:56:18;100464.66;;;4.18;89.63
46394;BME280;32099;53.588;10.176;2023-02-01T06:58:43;100457.81;;;4.24;90.02
46394;BME280;32099;53.588;10.176;2023-02-01T07:01:09;100460.38;;;4.25;90.42
46394;BME280;32099;53.588;10.176;2023-02-01T07:03:35;100461.91;;;4.28;89.68
46394;BME280;32099;53.588;10.176;2023-02-01T07:06:01;100465.72;;;4.35;90.17
46394;BME280;32099;53.588;10.176;2023-02-01T07:08:27;100464.41;;;4.39;90.39
46394;BME280;32099;53.588;10.176;2023-02-01T07:10:53;100463.13;;;4.43;90.15
46394;BME280;32099;53.588;10.176;2023-02-01T07:13:18;100457.28;;;4.48;90.20
46394;BME280;32099;53.588;10.176;2023-02-01T07:15:43;100464.38;;;4.49;90.61
46394;BME280;32099;53.588;10.176;2023-02-01T07:18:09;100477.03;;;4.48;91.18
46394;BME280;32099;53.588;10.176;2023-02-01T07:20:34;100464.38;;;4.49;91.11
46394;BME280;32099;53.588;10.176;2023-02-01T07:22:59;100464.09;;;4.52;91.19
46394;BME280;32099;53.588;10.176;2023-02-01T07:25:24;100468.47;;;4.53;90.89
46394;BME280;32099;53.588;10.176;2023-02-01T07:27:50;100466.31;;;4.57;91.06
46394;BME280;32099;53.588;10.176;2023-02-01T07:30:15;100451.13;;;4.56;91.05
46394;BME280;32099;53.588;10.176;2023-02-01T07:32:41;100454.38;;;4.59;91.31
46394;BME280;32099;53.588;10.176;2023-02-01T07:35:06;100455.06;;;4.61;91.08
46394;BME280;32099;53.588;10.176;2023-02-01T07:37:31;100451.91;;;4.66;91.53
46394;BME280;32099;53.588;10.176;2023-02-01T07:39:57;100457.72;;;4.71;91.87
46394;BME280;32099;53.588;10.176;2023-02-01T07:42:22;100466.03;;;4.78;91.35
46394;BME280;32099;53.588;10.176;2023-02-01T07:44:47;100461.75;;;4.85;91.13
46394;BME280;32099;53.588;10.176;2023-02-01T07:47:12;100464.53;;;4.93;91.21
46394;BME280;32099;53.588;10.176;2023-02-01T07:49:38;100473.88;;;4.99;91.21
46394;BME280;32099;53.588;10.176;2023-02-01T07:52:03;100466.28;;;5.03;90.69
46394;BME280;32099;53.588;10.176;2023-02-01T07:54:28;100454.19;;;4.89;91.50
46394;BME280;32099;53.588;10.176;2023-02-01T07:56:53;100466.22;;;4.94;91.62
46394;BME280;32099;53.588;10.176;2023-02-01T07:59:19;100466.69;;;4.90;91.08
46394;BME280;32099;53.588;10.176;2023-02-01T08:01:44;100488.06;;;4.83;91.13
46394;BME280;32099;53.588;10.176;2023-02-01T08:04:11;100479.13;;;4.83;91.70
46394;BME280;32099;53.588;10.176;2023-02-01T08:06:37;100483.50;;;4.84;91.80
46394;BME280;32099;53.588;10.176;2023-02-01T08:09:03;100475.50;;;4.92;91.08
46394;BME280;32099;53.588;10.176;2023-02-01T08:11:29;100467.75;;;4.97;90.96
46394;BME280;32099;53.588;10.176;2023-02-01T08:13:55;100481.50;;;5.04;91.52
46394;BME280;32099;53.588;10.176;2023-02-01T08:16:21;100482.91;;;5.08;91.53
46394;BME280;32099;53.588;10.176;2023-02-01T08:18:48;100490.25;;;5.16;90.91
46394;BME280;32099;53.588;10.176;2023-02-01T08:21:15;100495.03;;;5.22;90.65
46394;BME280;32099;53.588;10.176;2023-02-01T08:23:43;100499.16;;;5.26;91.02
46394;BME280;32099;53.588;10.176;2023-02-01T08:26:18;100497.69;;;5.32;91.13
46394;BME280;32099;53.588;10.176;2023-02-01T08:28:47;100501.09;;;5.34;91.32
46394;BME280;32099;53.588;10.176;2023-02-01T08:31:16;100495.22;;;5.38;91.54
46394;BME280;32099;53.588;10.176;2023-02-01T08:33:44;100499.84;;;5.46;91.39
46394;BME280;32099;53.588;10.176;2023-02-01T08:36:13;100497.50;;;5.51;91.45
46394;BME280;32099;53.588;10.176;2023-02-01T08:38:39;100499.25;;;5.61;90.85
46394;BME280;32099;53.588;10.176;2023-02-01T08:41:05;100492.91;;;5.70;91.53
46394;BME280;32099;53.588;10.176;2023-02-01T08:43:32;100495.59;;;5.70;90.46
46394;BME280;32099;53.588;10.176;2023-02-01T08:45:57;100500.88;;;5.71;90.91
46394;BME280;32099;53.588;10.176;2023-02-01T08:48:22;100502.59;;;5.72;90.18
46394;BME280;32099;53.588;10.176;2023-02-01T08:50:48;100485.50;;;5.72;89.12
46394;BME280;32099;53.588;10.176;2023-02-01T08:53:13;100468.91;;;5.67;87.58
46394;BME280;32099;53.588;10.176;2023-02-01T08:55:39;100468.50;;;5.62;87.95
46394;BME280;32099;53.588;10.176;2023-02-01T08:58:04;100470.84;;;5.56;87.87
46394;BME280;32099;53.588;10.176;2023-02-01T09:00:29;100457.63;;;5.53;87.85
46394;BME280;32099;53.588;10.176;2023-02-01T09:02:55;100460.63;;;5.50;88.01
46394;BME280;32099;53.588;10.176;2023-02-01T09:05:20;100458.41;;;5.46;87.50
46394;BME280;32099;53.588;10.176;2023-02-01T09:07:47;100457.25;;;5.48;87.38
46394;BME280;32099;53.588;10.176;2023-02-01T09:10:12;100466.44;;;5.55;87.86
46394;BME280;32099;53.588;10.176;2023-02-01T09:12:37;100458.06;;;5.67;87.60
46394;BME280;32099;53.588;10.176;2023-02-01T09:15:03;100459.50;;;5.79;88.28
46394;BME280;32099;53.588;10.176;2023-02-01T09:17:30;100449.09;;;5.93;88.00
46394;BME280;32099;53.588;10.176;2023-02-01T09:19:56;100441.28;;;6.08;87.38
46394;BME280;32099;53.588;10.176;2023-02-01T09:22:21;100440.66;;;6.22;87.10
46394;BME280;32099;53.588;10.176;2023-02-01T09:24:47;100452.53;;;6.29;86.53
46394;BME280;32099;53.588;10.176;2023-02-01T09:27:12;100443.81;;;6.44;86.01
46394;BME280;32099;53.588;10.176;2023-02-01T09:29:37;100449.66;;;6.66;84.86
46394;BME280;32099;53.588;10.176;2023-02-01T09:32:02;100449.66;;;6.82;84.83
46394;BME280;32099;53.588;10.176;2023-02-01T09:34:28;100444.94;;;6.92;83.81
46394;BME280;32099;53.588;10.176;2023-02-01T09:36:53;100463.59;;;6.87;83.66
46394;BME280;32099;53.588;10.176;2023-02-01T09:39:19;100478.16;;;6.86;83.34
46394;BME280;32099;53.588;10.176;2023-02-01T09:42:06;100474.44;;;6.87;84.10
46394;BME280;32099;53.588;10.176;2023-02-01T09:47:22;100474.63;;;6.94;83.58
46394;BME280;32099;53.588;10.176;2023-02-01T09:49:54;100480.03;;;6.94;83.28
46394;BME280;32099;53.588;10.176;2023-02-01T09:52:27;100476.78;;;6.90;83.47
46394;BME280;32099;53.588;10.176;2023-02-01T09:55:03;100479.34;;;6.84;84.03
46394;BME280;32099;53.588;10.176;2023-02-01T09:57:55;100466.25;;;6.79;84.40
46394;BME280;32099;53.588;10.176;2023-02-01T10:00:29;100475.44;;;6.78;84.70
46394;BME280;32099;53.588;10.176;2023-02-01T10:02:59;100474.03;;;6.74;84.16
46394;BME280;32099;53.588;10.176;2023-02-01T10:05:47;100484.69;;;6.67;83.42
46394;BME280;32099;53.588;10.176;2023-02-01T10:08:40;100485.88;;;6.64;84.06
46394;BME280;32099;53.588;10.176;2023-02-01T10:13:57;100489.13;;;6.85;82.96
46394;BME280;32099;53.588;10.176;2023-02-01T10:16:47;100479.66;;;6.89;82.69
46394;BME280;32099;53.588;10.176;2023-02-01T10:22:23;100473.94;;;6.92;82.45
46394;BME280;32099;53.588;10.176;2023-02-01T10:25:07;100484.25;;;6.88;83.40
46394;BME280;32099;53.588;10.176;2023-02-01T10:27:39;100471.66;;;6.79;82.09
46394;BME280;32099;53.588;10.176;2023-02-01T10:30:14;100463.22;;;6.82;82.85
46394;BME280;32099;53.588;10.176;2023-02-01T10:32:44;100468.63;;;6.82;82.42
46394;BME280;32099;53.588;10.176;2023-02-01T10:37:38;100467.94;;;6.72;83.46
46394;BME280;32099;53.588;10.176;2023-02-01T10:40:15;100459.63;;;6.65;84.13
46394;BME280;32099;53.588;10.176;2023-02-01T10:42:46;100466.91;;;6.64;84.20
46394;BME280;32099;53.588;10.176;2023-02-01T10:45:18;100449.66;;;6.66;83.74
46394;BME280;32099;53.588;10.176;2023-02-01T10:47:47;100450.84;;;6.71;84.18
46394;BME280;32099;53.588;10.176;2023-02-01T10:50:17;100439.13;;;6.71;83.40
46394;BME280;32099;53.588;10.176;2023-02-01T10:52:54;100439.47;;;6.68;83.50
46394;BME280;32099;53.588;10.176;2023-02-01T10:58:14;100432.50;;;6.57;84.68
46394;BME280;32099;53.588;10.176;2023-02-01T11:01:03;100435.72;;;6.52;84.72
46394;BME280;32099;53.588;10.176;2023-02-01T11:06:24;100426.50;;;6.37;85.97
46394;BME280;32099;53.588;10.176;2023-02-01T11:08:57;100420.53;;;6.25;86.45
46394;BME280;32099;53.588;10.176;2023-02-01T11:11:24;100422.72;;;6.21;87.30
46394;BME280;32099;53.588;10.176;2023-02-01T11:13:55;100407.13;;;6.15;89.15
46394;BME280;32099;53.588;10.176;2023-02-01T11:16:28;100393.22;;;6.10;88.13
46394;BME280;32099;53.588;10.176;2023-02-01T11:19:01;100400.13;;;6.04;87.56
46394;BME280;32099;53.588;10.176;2023-02-01T11:21:27;100389.81;;;5.81;85.51
46394;BME280;32099;53.588;10.176;2023-02-01T11:23:53;100376.81;;;5.50;85.80
46394;BME280;32099;53.588;10.176;2023-02-01T11:26:23;100377.84;;;5.31;87.52
46394;BME280;32099;53.588;10.176;2023-02-01T11:28:51;100374.91;;;5.24;88.76
46394;BME280;32099;53.588;10.176;2023-02-01T11:31:21;100382.19;;;5.24;89.80
46394;BME280;32099;53.588;10.176;2023-02-01T11:33:50;100397.41;;;5.25;91.80
46394;BME280;32099;53.588;10.176;2023-02-01T11:36:20;100381.41;;;5.32;90.63
46394;BME280;32099;53.588;10.176;2023-02-01T11:41:40;100367.38;;;5.54;90.37
46394;BME280;32099;53.588;10.176;2023-02-01T11:44:22;100356.41;;;5.64;90.27
46394;BME280;32099;53.588;10.176;2023-02-01T11:46:55;100345.28;;;5.67;89.86
46394;BME280;32099;53.588;10.176;2023-02-01T11:49:26;100340.25;;;5.72;91.04
46394;BME280;32099;53.588;10.176;2023-02-01T12:02:57;100332.31;;;6.06;90.31
46394;BME280;32099;53.588;10.176;2023-02-01T12:11:16;100323.19;;;6.07;89.46
46394;BME280;32099;53.588;10.176;2023-02-01T12:19:52;100319.28;;;6.01;87.49
46394;BME280;32099;53.588;10.176;2023-02-01T12:25:25;100314.13;;;5.90;88.39
46394;BME280;32099;53.588;10.176;2023-02-01T12:30:28;100320.44;;;5.72;99.00
46394;BME280;32099;53.588;10.176;2023-02-01T12:43:45;100336.81;;;5.62;99.64
46394;BME280;32099;53.588;10.176;2023-02-01T12:46:37;100341.16;;;5.55;97.93
46394;BME280;32099;53.588;10.176;2023-02-01T13:02:52;100336.84;;;5.18;97.79
46394;BME280;32099;53.588;10.176;2023-02-01T13:11:06;100340.16;;;5.03;97.23
46394;BME280;32099;53.588;10.176;2023-02-01T13:13:56;100339.81;;;5.06;97.91
46394;BME280;32099;53.588;10.176;2023-02-01T13:16:39;100342.38;;;5.08;96.18
46394;BME280;32099;53.588;10.176;2023-02-01T13:19:13;100333.25;;;5.09;97.02
46394;BME280;32099;53.588;10.176;2023-02-01T13:21:45;100325.00;;;5.10;97.04
46394;BME280;32099;53.588;10.176;2023-02-01T13:24:27;100324.81;;;5.12;95.67
46394;BME280;32099;53.588;10.176;2023-02-01T13:26:57;100315.22;;;5.18;95.78
46394;BME280;32099;53.588;10.176;2023-02-01T13:29:23;100311.91;;;5.24;96.16
46394;BME280;32099;53.588;10.176;2023-02-01T13:34:38;100312.97;;;5.58;97.40
46394;BME280;32099;53.588;10.176;2023-02-01T13:43:30;100331.34;;;6.23;95.40
46394;BME280;32099;53.588;10.176;2023-02-01T13:46:01;100347.78;;;6.30;93.03
46394;BME280;32099;53.588;10.176;2023-02-01T13:48:38;100354.34;;;6.19;91.86
46394;BME280;32099;53.588;10.176;2023-02-01T13:51:10;100357.69;;;6.05;94.32
46394;BME280;32099;53.588;10.176;2023-02-01T13:53:37;100354.91;;;5.96;94.65
46394;BME280;32099;53.588;10.176;2023-02-01T13:56:14;100329.50;;;5.89;95.25
46394;BME280;32099;53.588;10.176;2023-02-01T13:58:43;100343.88;;;5.90;95.31
46394;BME280;32099;53.588;10.176;2023-02-01T14:03:48;100363.31;;;5.85;95.81
46394;BME280;32099;53.588;10.176;2023-02-01T14:06:18;100358.75;;;5.85;94.97
46394;BME280;32099;53.588;10.176;2023-02-01T14:11:35;100355.41;;;5.65;94.23
46394;BME280;32099;53.588;10.176;2023-02-01T14:16:41;100352.63;;;5.49;95.40
46394;BME280;32099;53.588;10.176;2023-02-01T15:16:04;100400.28;;;4.69;89.74
46394;BME280;32099;53.588;10.176;2023-02-01T15:18:29;100404.22;;;4.75;89.85
46394;BME280;32099;53.588;10.176;2023-02-01T15:20:56;100397.66;;;4.77;89.86
46394;BME280;32099;53.588;10.176;2023-02-01T15:23:23;100409.31;;;4.78;90.41
46394;BME280;32099;53.588;10.176;2023-02-01T15:25:48;100408.31;;;4.79;89.83
46394;BME280;32099;53.588;10.176;2023-02-01T15:28:14;100402.78;;;4.81;90.08
46394;BME280;32099;53.588;10.176;2023-02-01T15:30:50;100400.78;;;4.83;90.74
46394;BME280;32099;53.588;10.176;2023-02-01T15:33:30;100403.31;;;4.84;90.30
46394;BME280;32099;53.588;10.176;2023-02-01T15:38:33;100407.84;;;4.84;89.79
46394;BME280;32099;53.588;10.176;2023-02-01T15:41:09;100409.72;;;4.83;89.64
46394;BME280;32099;53.588;10.176;2023-02-01T15:43:47;100428.22;;;4.78;90.15
46394;BME280;32099;53.588;10.176;2023-02-01T15:46:16;100416.75;;;4.76;90.22
46394;BME280;32099;53.588;10.176;2023-02-01T15:48:53;100430.25;;;4.76;90.21
46394;BME280;32099;53.588;10.176;2023-02-01T15:51:23;100433.63;;;4.78;89.99
46394;BME280;32099;53.588;10.176;2023-02-01T15:53:52;100426.91;;;4.82;90.38
46394;BME280;32099;53.588;10.176;2023-02-01T15:56:22;100438.72;;;4.81;89.95